Rudytown, Pennsylvania
Current Conditions -  °F | °C
As of 10:56 AM on Monday 22 Dec 2014 (Local Time) from KCXY Reporting Station
Haze Haze  
Wind Chill: 31°   Ceiling: 4000
Heat Index: 31°   Visibility: 6mi
Dew Point: 25°   Wind: 0mph
Humidity: 79%   Direction: NA
Pressure: 30.31"   Gusts: NA
Location:  40.2034°N, 76.87°W
Report Text: KCXY 221556Z 00000KT 6SM HZ OVC040 M01/M04 A3031 RMK AO2 SLP268 T10061039
Loading
Personal Weather Stations






























Interactive Weather Map New forecast layout! Learn more

10-Day Weather Forecast

Advertisements
Track Severe Weather on mobile